createdAt,value
2019-02-26T00:00:35.918Z,98580.25
2019-02-26T00:03:06.582Z,98581.13
2019-02-26T00:05:37.144Z,98583.81
2019-02-26T00:08:07.535Z,98572.74
2019-02-26T00:10:39.130Z,98571.47
2019-02-26T00:13:09.705Z,98562.09
2019-02-26T00:15:41.041Z,98569.74
2019-02-26T00:18:14.033Z,98563.04
2019-02-26T00:20:44.479Z,98572.88
2019-02-26T00:23:15.079Z,98564.38
2019-02-26T00:25:45.337Z,98560.82
2019-02-26T00:28:17.524Z,98556.38
2019-02-26T00:30:47.900Z,98561.73
2019-02-26T00:33:21.459Z,98562.69
2019-02-26T00:35:50.342Z,98571.64
2019-02-26T00:38:21.704Z,98559.65
2019-02-26T00:40:52.054Z,98559.72
2019-02-26T00:43:25.405Z,98566.80
2019-02-26T00:45:57.951Z,98570.37
2019-02-26T00:48:26.691Z,98559.72
2019-02-26T00:50:58.916Z,98555.28
2019-02-26T00:53:30.659Z,98561.16
2019-02-26T00:56:03.234Z,98550.94
2019-02-26T00:58:36.994Z,98539.80
2019-02-26T01:01:08.242Z,98541.56
2019-02-26T01:03:38.000Z,98540.67
2019-02-26T01:06:08.546Z,98534.89
2019-02-26T01:08:40.244Z,98541.66
2019-02-26T01:11:11.745Z,98518.83
2019-02-26T01:13:42.215Z,98515.69
2019-02-26T01:16:12.720Z,98499.27
2019-02-26T01:18:44.375Z,98501.48
2019-02-26T01:21:15.228Z,98510.47
2019-02-26T01:23:48.944Z,98513.67
2019-02-26T01:26:19.335Z,98506.55
2019-02-26T01:28:51.207Z,98491.43
2019-02-26T01:31:22.499Z,98484.24
2019-02-26T01:33:55.322Z,98487.88
2019-02-26T01:36:25.934Z,98499.50
2019-02-26T01:38:56.315Z,98493.62
2019-02-26T01:41:27.284Z,98484.31
2019-02-26T01:43:57.897Z,98495.98
2019-02-26T01:46:30.015Z,98500.84
2019-02-26T01:49:05.049Z,98491.99
2019-02-26T01:51:35.462Z,98492.48
2019-02-26T01:54:08.195Z,98496.44
2019-02-26T01:56:37.903Z,98486.64
2019-02-26T01:59:09.570Z,98486.25
2019-02-26T02:01:42.190Z,98482.30
2019-02-26T02:04:12.871Z,98497.03
2019-02-26T02:06:43.969Z,98493.47
2019-02-26T02:09:16.339Z,98484.55
2019-02-26T02:11:46.481Z,98479.66
2019-02-26T02:14:17.856Z,98488.64
2019-02-26T02:16:48.326Z,98485.02
2019-02-26T02:19:20.852Z,98479.20
2019-02-26T02:21:51.604Z,98471.16
2019-02-26T02:24:24.542Z,98472.57
2019-02-26T02:26:58.451Z,98476.16
2019-02-26T02:29:30.148Z,98473.98
2019-02-26T02:32:07.165Z,98465.00
2019-02-26T02:34:40.087Z,98461.44
2019-02-26T02:37:10.386Z,98458.44
2019-02-26T02:39:41.907Z,98457.09
2019-02-26T02:42:14.085Z,98454.42
2019-02-26T02:44:46.813Z,98452.20
2019-02-26T02:47:16.960Z,98446.39
2019-02-26T02:49:47.414Z,98445.58
2019-02-26T02:52:17.928Z,98437.12
2019-02-26T02:54:49.932Z,98446.49
2019-02-26T02:57:21.784Z,98441.55
2019-02-26T02:59:54.567Z,98442.89
2019-02-26T03:02:24.791Z,98435.74
2019-02-26T03:04:55.427Z,98437.54
2019-02-26T03:07:27.492Z,98439.34
2019-02-26T03:10:00.447Z,98440.75
2019-02-26T03:12:32.201Z,98433.17
2019-02-26T03:15:05.010Z,98431.37
2019-02-26T03:17:36.971Z,98429.61
2019-02-26T03:20:10.046Z,98424.68
2019-02-26T03:22:45.082Z,98421.19
2019-02-26T03:25:14.886Z,98421.65
2019-02-26T03:27:45.533Z,98414.50
2019-02-26T03:30:26.433Z,98414.08
2019-02-26T03:32:58.181Z,98411.89
2019-02-26T03:35:25.124Z,98402.97
2019-02-26T03:37:57.930Z,98404.77
2019-02-26T03:40:30.079Z,98400.69
2019-02-26T03:43:01.345Z,98397.09
2019-02-26T03:45:31.826Z,98393.60
2019-02-26T03:48:02.176Z,98381.12
2019-02-26T03:50:32.464Z,98382.55
2019-02-26T03:53:02.854Z,98385.67
2019-02-26T03:55:39.109Z,98386.56
2019-02-26T03:58:09.810Z,98370.03
2019-02-26T04:00:41.712Z,98370.95
2019-02-26T04:03:15.147Z,98358.91
2019-02-26T04:05:45.542Z,98361.19
2019-02-26T04:08:16.577Z,98358.52
2019-02-26T04:10:49.913Z,98352.73
2019-02-26T04:13:20.173Z,98341.64
2019-02-26T04:15:51.550Z,98337.20
2019-02-26T04:18:22.686Z,98333.19
2019-02-26T04:20:53.046Z,98330.52
2019-02-26T04:23:23.350Z,98329.66
2019-02-26T04:26:29.136Z,98333.68
2019-02-26T04:29:43.541Z,98333.61
2019-02-26T04:32:46.230Z,98333.26
2019-02-26T04:35:52.749Z,98316.00
2019-02-26T04:38:57.676Z,98338.27
2019-02-26T04:41:51.151Z,98320.82
2019-02-26T04:45:02.121Z,98318.19
2019-02-26T04:47:34.148Z,98314.66
2019-02-26T04:50:06.264Z,98319.13
2019-02-26T04:52:41.335Z,98303.95
2019-02-26T04:55:10.810Z,98308.42
2019-02-26T04:57:43.393Z,98304.41
2019-02-26T05:00:15.340Z,98307.47
2019-02-26T05:02:46.116Z,98307.55
2019-02-26T05:05:16.406Z,98308.95
2019-02-26T05:07:50.058Z,98299.13
2019-02-26T05:10:24.301Z,98312.90
2019-02-26T05:12:56.985Z,98300.92
2019-02-26T05:15:30.029Z,98300.58
2019-02-26T05:18:00.128Z,98310.83
2019-02-26T05:20:31.454Z,98306.81
2019-02-26T05:23:03.875Z,98310.37
2019-02-26T05:25:37.356Z,98313.08
2019-02-26T05:28:11.475Z,98325.94
2019-02-26T05:30:41.237Z,98324.56
2019-02-26T05:33:12.815Z,98323.68
2019-02-26T05:35:46.002Z,98321.00
2019-02-26T05:38:15.345Z,98333.79
2019-02-26T05:40:47.616Z,98329.39
2019-02-26T05:43:17.794Z,98335.12
2019-02-26T05:45:49.147Z,98347.63
2019-02-26T05:48:21.310Z,98347.63
2019-02-26T05:50:53.695Z,98346.78
2019-02-26T05:53:24.073Z,98343.62
2019-02-26T05:55:56.034Z,98342.70
2019-02-26T05:58:26.455Z,98343.58
2019-02-26T06:00:56.935Z,98346.26
2019-02-26T06:03:27.603Z,98335.55
2019-02-26T06:06:00.331Z,98340.41
2019-02-26T06:08:33.761Z,98343.89
2019-02-26T06:11:01.303Z,98341.71
2019-02-26T06:13:31.547Z,98339.87
2019-02-26T06:16:02.190Z,98345.20
2019-02-26T06:18:32.653Z,98357.28
2019-02-26T06:21:03.345Z,98352.28
2019-02-26T06:23:34.541Z,98358.09
2019-02-26T06:26:10.730Z,98362.91
2019-02-26T06:28:42.843Z,98367.81
2019-02-26T06:31:14.644Z,98365.59
2019-02-26T06:33:45.910Z,98358.86
2019-02-26T06:36:18.620Z,98371.76
2019-02-26T06:38:49.719Z,98364.53
2019-02-26T06:41:21.542Z,98366.83
2019-02-26T06:43:52.704Z,98381.91
2019-02-26T06:46:26.248Z,98381.83
2019-02-26T06:48:56.521Z,98381.83
2019-02-26T06:51:28.222Z,98388.98
2019-02-26T06:54:01.037Z,98388.98
2019-02-26T06:56:36.846Z,98388.00
2019-02-26T06:59:12.125Z,98388.45
2019-02-26T07:01:42.147Z,98383.52
2019-02-26T07:04:16.051Z,98375.42
2019-02-26T07:06:46.599Z,98369.11
2019-02-26T07:09:18.299Z,98357.06
2019-02-26T07:11:49.238Z,98367.70
2019-02-26T07:14:19.602Z,98352.93
2019-02-26T07:16:50.026Z,98350.25
2019-02-26T07:19:20.382Z,98360.97
2019-02-26T07:21:52.976Z,98365.38
2019-02-26T07:24:24.835Z,98378.23
2019-02-26T07:26:55.513Z,98383.59
2019-02-26T07:29:25.860Z,98392.89
2019-02-26T07:31:57.007Z,98397.41
2019-02-26T07:34:29.486Z,98404.95
2019-02-26T07:37:00.093Z,98398.21
2019-02-26T07:39:30.469Z,98383.48
2019-02-26T07:42:01.540Z,98362.89
2019-02-26T07:44:34.820Z,98363.32
2019-02-26T07:47:06.711Z,98368.61
2019-02-26T07:49:37.425Z,98353.94
2019-02-26T07:52:08.732Z,98360.18
2019-02-26T07:54:40.478Z,98370.41
2019-02-26T07:57:11.491Z,98370.02
2019-02-26T07:59:45.615Z,98364.47
2019-02-26T08:02:16.937Z,98372.97
2019-02-26T08:04:47.332Z,98365.00
2019-02-26T08:07:19.161Z,98354.68
2019-02-26T08:09:50.059Z,98352.42
2019-02-26T08:12:20.530Z,98354.61
2019-02-26T08:14:53.630Z,98344.42
2019-02-26T08:17:24.132Z,98352.88
2019-02-26T08:19:54.614Z,98349.85
2019-02-26T08:22:27.020Z,98357.36
2019-02-26T08:24:58.130Z,98346.64
2019-02-26T08:27:30.828Z,98341.28
2019-02-26T08:30:00.937Z,98344.84
2019-02-26T08:32:33.213Z,98347.06
2019-02-26T08:35:03.634Z,98344.38
2019-02-26T08:37:34.506Z,98350.20
2019-02-26T08:40:05.402Z,98347.52
2019-02-26T08:42:35.959Z,98346.18
2019-02-26T08:45:08.568Z,98351.92
2019-02-26T08:47:40.253Z,98351.47
2019-02-26T08:50:14.263Z,98357.78
2019-02-26T08:52:47.066Z,98364.47
2019-02-26T08:55:19.147Z,98361.30
2019-02-26T08:57:51.226Z,98361.27
2019-02-26T09:00:21.255Z,98365.74
2019-02-26T09:02:56.448Z,98360.92
2019-02-26T09:05:28.232Z,98371.63
2019-02-26T09:07:58.001Z,98374.23
2019-02-26T09:10:28.510Z,98372.55
2019-02-26T09:12:59.967Z,98369.94
2019-02-26T09:15:31.309Z,98363.59
2019-02-26T09:18:02.891Z,98363.52
2019-02-26T09:20:33.226Z,98369.41
2019-02-26T09:23:03.688Z,98365.74
2019-02-26T09:25:34.138Z,98373.36
2019-02-26T09:28:04.673Z,98373.36
2019-02-26T09:30:38.456Z,98374.77
2019-02-26T09:33:10.926Z,98369.02
2019-02-26T09:35:41.374Z,98366.80
2019-02-26T09:38:12.357Z,98351.19
2019-02-26T09:40:45.285Z,98356.09
2019-02-26T09:43:17.289Z,98354.30
2019-02-26T09:45:50.521Z,98338.68
2019-02-26T09:48:21.967Z,98341.43
2019-02-26T09:50:52.581Z,98340.55
2019-02-26T09:53:23.086Z,98336.99
2019-02-26T09:55:53.535Z,98340.55
2019-02-26T09:58:25.348Z,98331.25
2019-02-26T10:00:55.927Z,98341.47
2019-02-26T10:03:27.277Z,98337.06
2019-02-26T10:06:00.016Z,98344.64
2019-02-26T10:08:30.746Z,98342.42
2019-02-26T10:11:02.708Z,98336.99
2019-02-26T10:13:34.434Z,98337.95
2019-02-26T10:16:06.943Z,98324.55
2019-02-26T10:18:39.753Z,98318.31
2019-02-26T10:21:12.073Z,98318.24
2019-02-26T10:23:47.220Z,98317.33
2019-02-26T10:26:18.535Z,98317.86
2019-02-26T10:28:56.164Z,98317.78
2019-02-26T10:31:23.956Z,98314.30
2019-02-26T10:33:53.164Z,98311.55
2019-02-26T10:36:23.564Z,98300.48
2019-02-26T10:38:57.780Z,98310.28
2019-02-26T10:41:27.154Z,98298.23
2019-02-26T10:43:57.452Z,98295.09
2019-02-26T10:46:29.417Z,98298.23
2019-02-26T10:48:59.983Z,98305.80
2019-02-26T10:51:32.211Z,98295.13
2019-02-26T10:54:03.415Z,98287.52
2019-02-26T10:56:39.333Z,98283.04
2019-02-26T10:59:09.238Z,98284.42
2019-02-26T11:01:39.965Z,98283.08
2019-02-26T11:04:10.461Z,98266.55
2019-02-26T11:06:43.798Z,98267.01
2019-02-26T11:09:17.405Z,98279.55
2019-02-26T11:11:45.442Z,98269.23
2019-02-26T11:14:17.354Z,98261.65
2019-02-26T11:16:47.961Z,98278.67
2019-02-26T11:19:18.259Z,98282.62
2019-02-26T11:21:50.717Z,98278.22
2019-02-26T11:24:23.438Z,98284.48
2019-02-26T11:26:52.988Z,98279.59
2019-02-26T11:29:23.298Z,98272.90
2019-02-26T11:31:54.778Z,98276.91
2019-02-26T11:34:27.848Z,98260.92
2019-02-26T11:36:58.495Z,98258.24
2019-02-26T11:39:29.647Z,98243.97
2019-02-26T11:42:01.205Z,98244.39
2019-02-26T11:44:31.679Z,98246.19
2019-02-26T11:47:03.106Z,98238.58
2019-02-26T11:49:34.887Z,98241.30
2019-02-26T11:52:05.468Z,98242.25
2019-02-26T11:54:37.252Z,98242.63
2019-02-26T11:57:11.029Z,98242.59
2019-02-26T11:59:42.794Z,98229.66
2019-02-26T12:02:13.361Z,98230.58
2019-02-26T12:04:46.806Z,98237.70
2019-02-26T12:07:16.118Z,98233.68
2019-02-26T12:09:46.605Z,98232.34
2019-02-26T12:12:17.270Z,98222.55
2019-02-26T12:14:48.430Z,98228.78
2019-02-26T12:17:19.062Z,98223.42
2019-02-26T12:19:51.465Z,98228.40
2019-02-26T12:22:25.194Z,98225.72
2019-02-26T12:24:56.090Z,98236.44
2019-02-26T12:27:28.906Z,98230.20
2019-02-26T12:29:59.216Z,98217.69
2019-02-26T12:32:29.885Z,98226.10
2019-02-26T12:35:00.310Z,98225.72
2019-02-26T12:37:33.670Z,98228.78
2019-02-26T12:40:04.209Z,98219.88
2019-02-26T12:42:34.706Z,98228.40
2019-02-26T12:45:09.333Z,98226.18
2019-02-26T12:47:40.712Z,98223.58
2019-02-26T12:50:11.728Z,98244.12
2019-02-26T12:52:44.239Z,98228.05
2019-02-26T12:55:14.774Z,98238.77
2019-02-26T12:57:47.217Z,98229.01
2019-02-26T13:00:19.971Z,98231.69
2019-02-26T13:02:52.361Z,98222.84
2019-02-26T13:05:23.074Z,98222.43
2019-02-26T13:07:53.638Z,98215.34
2019-02-26T13:10:25.319Z,98224.72
2019-02-26T13:13:00.242Z,98212.67
2019-02-26T13:15:27.913Z,98200.66
2019-02-26T13:17:59.882Z,98206.02
2019-02-26T13:20:34.171Z,98202.54
2019-02-26T13:23:17.152Z,98195.92
2019-02-26T13:25:37.515Z,98196.88
2019-02-26T13:28:08.017Z,98188.42
2019-02-26T13:30:38.450Z,98188.34
2019-02-26T13:33:10.866Z,98181.27
2019-02-26T13:35:42.054Z,98173.70
2019-02-26T13:38:13.836Z,98169.75
2019-02-26T13:41:27.342Z,98159.97
2019-02-26T13:43:39.165Z,98159.16
2019-02-26T13:46:09.535Z,98155.76
2019-02-26T13:48:40.089Z,98146.39
2019-02-26T13:51:10.592Z,98146.05
2019-02-26T13:53:40.958Z,98147.00
2019-02-26T13:56:11.372Z,98148.80
2019-02-26T13:58:42.039Z,98146.05
2019-02-26T14:01:12.748Z,98143.78
2019-02-26T14:03:43.778Z,98132.66
2019-02-26T14:06:17.061Z,98134.95
2019-02-26T14:08:50.781Z,98134.08
2019-02-26T14:11:21.145Z,98120.23
2019-02-26T14:13:51.462Z,98126.58
2019-02-26T14:16:21.712Z,98113.27
2019-02-26T14:18:52.236Z,98107.05
2019-02-26T14:21:22.717Z,98104.36
2019-02-26T14:23:53.019Z,98111.13
2019-02-26T14:26:23.578Z,98104.02
2019-02-26T14:28:54.013Z,98108.99
2019-02-26T14:31:24.508Z,98112.55
2019-02-26T14:33:56.660Z,98103.64
2019-02-26T14:36:27.021Z,98110.87
2019-02-26T14:38:57.414Z,98108.73
2019-02-26T14:41:27.865Z,98113.62
2019-02-26T14:43:58.290Z,98112.28
2019-02-26T14:46:28.735Z,98113.27
2019-02-26T14:48:59.272Z,98106.70
2019-02-26T14:51:29.713Z,98113.01
2019-02-26T14:54:01.546Z,98113.09
2019-02-26T14:56:37.208Z,98114.84
2019-02-26T14:59:07.627Z,98111.37
2019-02-26T15:01:38.095Z,98109.61
2019-02-26T15:04:08.448Z,98108.27
2019-02-26T15:06:39.407Z,98104.41
2019-02-26T15:09:11.044Z,98105.70
2019-02-26T15:11:41.685Z,98101.03
2019-02-26T15:14:12.008Z,98104.79
2019-02-26T15:16:42.535Z,98098.33
2019-02-26T15:19:12.992Z,98092.71
2019-02-26T15:21:43.416Z,98091.11
2019-02-26T15:24:14.172Z,98088.44
2019-02-26T15:26:44.548Z,98089.42
2019-02-26T15:29:14.862Z,98098.38
2019-02-26T15:31:46.944Z,98094.43
2019-02-26T15:34:17.562Z,98097.18
2019-02-26T15:36:51.806Z,98089.62
2019-02-26T15:39:22.171Z,98100.31
2019-02-26T15:41:52.708Z,98105.33
2019-02-26T15:44:23.262Z,98105.40
2019-02-26T15:46:53.885Z,98105.40
2019-02-26T15:49:24.391Z,98090.83
2019-02-26T15:51:57.649Z,98097.03
2019-02-26T15:54:27.965Z,98101.04
2019-02-26T15:57:00.480Z,98106.08
2019-02-26T15:59:30.722Z,98106.61
2019-02-26T16:02:01.244Z,98099.92
2019-02-26T16:04:32.675Z,98095.91
2019-02-26T16:07:04.008Z,98102.64
2019-02-26T16:09:35.704Z,98108.52
2019-02-26T16:12:06.091Z,98102.36
2019-02-26T16:14:38.603Z,98104.20
2019-02-26T16:17:09.497Z,98100.57
2019-02-26T16:19:39.899Z,98100.99
2019-02-26T16:22:10.261Z,98097.36
2019-02-26T16:24:40.737Z,98096.03
2019-02-26T16:27:11.076Z,98108.06
2019-02-26T16:29:41.650Z,98109.47
2019-02-26T16:32:12.000Z,98102.36
2019-02-26T16:34:42.462Z,98112.61
2019-02-26T16:37:12.937Z,98118.41
2019-02-26T16:39:43.620Z,98118.03
2019-02-26T16:42:13.932Z,98116.34
2019-02-26T16:44:44.312Z,98118.10
2019-02-26T16:47:15.250Z,98120.36
2019-02-26T16:49:46.163Z,98120.81
2019-02-26T16:52:16.610Z,98122.23
2019-02-26T16:54:48.345Z,98122.23
2019-02-26T16:57:18.645Z,98118.67
2019-02-26T16:59:49.194Z,98122.76
2019-02-26T17:02:19.854Z,98128.17
2019-02-26T17:04:50.297Z,98131.73
2019-02-26T17:07:20.659Z,98141.55
2019-02-26T17:09:55.448Z,98145.14
2019-02-26T17:12:23.476Z,98150.10
2019-02-26T17:14:54.250Z,98153.69
2019-02-26T17:17:24.702Z,98144.83
2019-02-26T17:19:55.367Z,98146.63
2019-02-26T17:22:25.700Z,98149.75
2019-02-26T17:24:55.697Z,98154.22
2019-02-26T17:27:26.035Z,98152.95
2019-02-26T17:29:56.499Z,98149.83
2019-02-26T17:32:27.233Z,98150.74
2019-02-26T17:34:57.532Z,98155.24
2019-02-26T17:37:28.010Z,98164.11
2019-02-26T17:40:02.977Z,98159.30
2019-02-26T17:42:34.387Z,98169.53
2019-02-26T17:45:05.504Z,98169.98
2019-02-26T17:47:36.015Z,98169.60
2019-02-26T17:50:09.671Z,98182.09
2019-02-26T17:52:39.915Z,98180.41
2019-02-26T17:55:10.416Z,98179.03
2019-02-26T17:57:41.203Z,98180.83
2019-02-26T18:00:13.256Z,98190.19
2019-02-26T18:02:43.787Z,98188.91
2019-02-26T18:05:14.439Z,98185.82
2019-02-26T18:07:44.962Z,98191.62
2019-02-26T18:10:16.636Z,98199.19
2019-02-26T18:12:47.209Z,98190.71
2019-02-26T18:15:18.509Z,98192.96
2019-02-26T18:17:49.029Z,98193.48
2019-02-26T18:20:19.817Z,98188.14
2019-02-26T18:22:50.139Z,98190.95
2019-02-26T18:25:22.417Z,98189.16
2019-02-26T18:27:52.995Z,98196.69
2019-02-26T18:30:23.605Z,98186.48
2019-02-26T18:32:58.810Z,98180.33
2019-02-26T18:35:28.037Z,98174.98
2019-02-26T18:37:58.564Z,98175.44
2019-02-26T18:40:29.110Z,98172.77
2019-02-26T18:42:59.490Z,98162.60
2019-02-26T18:45:30.050Z,98168.34
2019-02-26T18:48:03.159Z,98167.07
2019-02-26T18:50:33.790Z,98160.84
2019-02-26T18:53:07.034Z,98161.72
2019-02-26T18:55:37.514Z,98155.56
2019-02-26T18:58:08.230Z,98155.11
2019-02-26T19:00:38.664Z,98151.55
2019-02-26T19:03:11.100Z,98156.97
2019-02-26T19:05:44.560Z,98157.05
2019-02-26T19:08:15.079Z,98155.70
2019-02-26T19:10:45.464Z,98168.12
2019-02-26T19:13:16.877Z,98156.63
2019-02-26T19:15:48.468Z,98169.98
2019-02-26T19:18:19.052Z,98165.16
2019-02-26T19:20:49.699Z,98170.97
2019-02-26T19:23:20.385Z,98173.19
2019-02-26T19:25:50.885Z,98180.33
2019-02-26T19:28:21.309Z,98171.04
2019-02-26T19:30:53.012Z,98172.83
2019-02-26T19:33:23.568Z,98184.41
2019-02-26T19:35:56.016Z,98188.48
2019-02-26T19:38:27.683Z,98193.83
2019-02-26T19:41:05.658Z,98189.39
2019-02-26T19:43:37.455Z,98198.75
2019-02-26T19:46:09.872Z,98197.48
2019-02-26T19:48:40.501Z,98202.37
2019-02-26T19:51:11.175Z,98194.81
2019-02-26T19:53:41.640Z,98193.54
2019-02-26T19:56:12.077Z,98193.12
2019-02-26T19:58:44.454Z,98190.94
2019-02-26T20:01:14.897Z,98180.70
2019-02-26T20:03:45.345Z,98184.71
2019-02-26T20:06:15.760Z,98180.77
2019-02-26T20:08:47.328Z,98188.30
2019-02-26T20:11:17.953Z,98174.97
2019-02-26T20:13:48.340Z,98166.08
2019-02-26T20:16:19.312Z,98157.21
2019-02-26T20:18:49.641Z,98165.23
2019-02-26T20:21:20.192Z,98159.95
2019-02-26T20:23:53.369Z,98167.02
2019-02-26T20:26:23.564Z,98152.78
2019-02-26T20:28:53.935Z,98160.80
2019-02-26T20:31:24.310Z,98163.96
2019-02-26T20:33:56.316Z,98149.72
2019-02-26T20:36:26.882Z,98153.73
2019-02-26T20:38:59.637Z,98143.50
2019-02-26T20:41:32.586Z,98149.30
2019-02-26T20:44:04.647Z,98145.61
2019-02-26T20:46:35.558Z,98137.80
2019-02-26T20:49:05.981Z,98141.78
2019-02-26T20:51:36.509Z,98143.15
2019-02-26T20:54:06.889Z,98145.44
2019-02-26T20:56:37.363Z,98142.77
2019-02-26T20:59:07.859Z,98146.77
2019-02-26T21:01:40.153Z,98149.83
2019-02-26T21:04:10.734Z,98155.17
2019-02-26T21:06:41.492Z,98156.48
2019-02-26T21:09:11.897Z,98155.59
2019-02-26T21:11:44.496Z,98160.42
2019-02-26T21:14:15.956Z,98154.61
2019-02-26T21:16:46.352Z,98160.34
2019-02-26T21:19:16.750Z,98157.67
2019-02-26T21:21:49.118Z,98166.50
2019-02-26T21:24:19.579Z,98166.05
2019-02-26T21:26:52.613Z,98166.44
2019-02-26T21:29:22.010Z,98172.59
2019-02-26T21:31:52.755Z,98174.34
2019-02-26T21:34:23.259Z,98177.41
2019-02-26T21:36:53.549Z,98180.05
2019-02-26T21:39:25.027Z,98175.09
2019-02-26T21:41:56.404Z,98172.84
2019-02-26T21:44:26.963Z,98176.78
2019-02-26T21:46:57.358Z,98172.63
2019-02-26T21:49:28.095Z,98169.95
2019-02-26T21:51:58.515Z,98172.17
2019-02-26T21:54:30.939Z,98180.61
2019-02-26T21:57:01.394Z,98177.45
2019-02-26T21:59:32.763Z,98178.26
2019-02-26T22:02:03.894Z,98168.44
2019-02-26T22:04:34.203Z,98181.73
2019-02-26T22:07:04.606Z,98178.61
2019-02-26T22:09:35.197Z,98173.26
2019-02-26T22:12:05.613Z,98180.83
2019-02-26T22:14:36.872Z,98177.20
2019-02-26T22:17:09.619Z,98174.48
2019-02-26T22:19:40.069Z,98168.27
2019-02-26T22:22:12.312Z,98182.02
2019-02-26T22:24:42.772Z,98170.87
2019-02-26T22:27:13.291Z,98178.36
2019-02-26T22:29:48.120Z,98169.46
2019-02-26T22:32:18.108Z,98173.02
2019-02-26T22:34:50.862Z,98176.95
2019-02-26T22:37:20.623Z,98174.28
2019-02-26T22:39:51.008Z,98182.30
2019-02-26T22:42:21.884Z,98178.25
2019-02-26T22:44:54.658Z,98183.53
2019-02-26T22:47:24.693Z,98177.30
2019-02-26T22:49:55.092Z,98173.29
2019-02-26T22:52:25.575Z,98168.82
2019-02-26T22:54:55.920Z,98168.40
2019-02-26T22:57:27.616Z,98160.34
2019-02-26T22:59:59.376Z,98165.69
2019-02-26T23:02:31.828Z,98166.08
2019-02-26T23:05:02.410Z,98166.00
2019-02-26T23:07:39.145Z,98172.69
2019-02-26T23:10:06.643Z,98168.67
2019-02-26T23:12:38.024Z,98172.66
2019-02-26T23:15:09.694Z,98169.98
2019-02-26T23:17:41.121Z,98163.29
2019-02-26T23:20:11.817Z,98161.88
2019-02-26T23:22:42.385Z,98166.77
2019-02-26T23:25:14.066Z,98153.86
2019-02-26T23:27:46.121Z,98150.23
2019-02-26T23:30:18.783Z,98145.77
2019-02-26T23:32:49.222Z,98149.31
2019-02-26T23:35:19.786Z,98140.41
2019-02-26T23:37:50.185Z,98140.41
2019-02-26T23:40:20.796Z,98141.30
2019-02-26T23:42:51.352Z,98141.75
2019-02-26T23:45:24.279Z,98135.06
2019-02-26T23:47:54.733Z,98137.28
2019-02-26T23:50:25.200Z,98134.99
2019-02-26T23:52:55.688Z,98139.00
2019-02-26T23:55:26.457Z,98127.84
2019-02-26T23:57:58.053Z,98137.14
